createdAt,value
2019-01-15T00:00:08.079Z,0.00
2019-01-15T00:02:38.532Z,0.00
2019-01-15T00:05:09.533Z,0.10
2019-01-15T00:07:40.122Z,0.10
2019-01-15T00:10:11.335Z,0.10
2019-01-15T00:12:42.690Z,0.10
2019-01-15T00:15:13.215Z,0.20
2019-01-15T00:17:44.136Z,0.20
2019-01-15T00:20:15.490Z,0.20
2019-01-15T00:22:46.151Z,0.20
2019-01-15T00:25:16.902Z,0.20
2019-01-15T00:27:47.643Z,0.20
2019-01-15T00:30:18.660Z,0.20
2019-01-15T00:32:49.163Z,0.20
2019-01-15T00:35:20.742Z,0.20
2019-01-15T00:37:51.037Z,0.20
2019-01-15T00:40:21.492Z,0.30
2019-01-15T00:42:52.381Z,0.30
2019-01-15T00:45:23.699Z,0.30
2019-01-15T00:47:54.706Z,0.30
2019-01-15T00:50:26.351Z,0.30
2019-01-15T00:52:57.500Z,0.30
2019-01-15T00:55:29.451Z,0.30
2019-01-15T00:58:00.090Z,0.30
2019-01-15T01:00:31.325Z,0.30
2019-01-15T01:03:03.581Z,0.30
2019-01-15T01:05:34.598Z,0.30
2019-01-15T01:08:06.199Z,0.30
2019-01-15T01:10:36.985Z,0.30
2019-01-15T01:13:07.335Z,0.40
2019-01-15T01:15:38.140Z,0.30
2019-01-15T01:18:09.079Z,0.40
2019-01-15T01:20:39.423Z,0.40
2019-01-15T01:23:09.857Z,0.40
2019-01-15T01:25:40.188Z,0.50
2019-01-15T01:28:10.628Z,0.40
2019-01-15T01:30:41.276Z,0.50
2019-01-15T01:33:15.111Z,0.50
2019-01-15T01:35:45.409Z,0.40
2019-01-15T01:38:15.829Z,0.50
2019-01-15T01:40:47.336Z,0.50
2019-01-15T01:43:18.608Z,0.50
2019-01-15T01:45:52.088Z,0.50
2019-01-15T01:48:22.617Z,0.50
2019-01-15T01:50:53.184Z,0.50
2019-01-15T01:53:26.421Z,0.50
2019-01-15T01:55:58.762Z,0.60
2019-01-15T01:58:29.187Z,0.60
2019-01-15T02:00:59.748Z,0.60
2019-01-15T02:03:30.342Z,0.60
2019-01-15T02:06:00.998Z,0.60
2019-01-15T02:08:31.925Z,0.70
2019-01-15T02:11:03.534Z,0.70
2019-01-15T02:13:34.299Z,0.70
2019-01-15T02:16:05.020Z,0.70
2019-01-15T02:18:35.657Z,0.70
2019-01-15T02:21:07.535Z,0.70
2019-01-15T02:23:38.066Z,0.80
2019-01-15T02:26:08.836Z,0.80
2019-01-15T02:28:40.364Z,0.80
2019-01-15T02:31:10.798Z,0.80
2019-01-15T02:33:41.869Z,0.80
2019-01-15T02:36:12.976Z,0.80
2019-01-15T02:38:44.965Z,0.70
2019-01-15T02:41:16.616Z,0.70
2019-01-15T02:43:48.454Z,0.70
2019-01-15T02:46:19.174Z,0.80
2019-01-15T02:48:50.026Z,0.70
2019-01-15T02:51:20.752Z,0.70
2019-01-15T02:53:51.275Z,0.70
2019-01-15T02:56:21.918Z,0.70
2019-01-15T02:58:52.252Z,0.70
2019-01-15T03:01:23.291Z,0.70
2019-01-15T03:03:54.215Z,0.70
2019-01-15T03:06:25.927Z,0.80
2019-01-15T03:08:59.331Z,0.80
2019-01-15T03:11:30.263Z,0.90
2019-01-15T03:14:01.090Z,0.80
2019-01-15T03:16:31.746Z,0.80
2019-01-15T03:19:02.462Z,0.80
2019-01-15T03:21:34.515Z,0.70
2019-01-15T03:24:05.293Z,0.80
2019-01-15T03:26:36.293Z,0.80
2019-01-15T03:29:07.315Z,0.70
2019-01-15T03:31:39.335Z,0.70
2019-01-15T03:34:10.053Z,0.70
2019-01-15T03:36:40.713Z,0.70
2019-01-15T03:39:11.571Z,0.70
2019-01-15T03:41:42.490Z,0.80
2019-01-15T03:44:12.890Z,0.70
2019-01-15T03:46:43.637Z,0.60
2019-01-15T03:49:25.153Z,0.50
2019-01-15T03:51:56.217Z,0.50
2019-01-15T03:54:27.044Z,0.50
2019-01-15T03:56:58.026Z,0.40
2019-01-15T03:59:29.191Z,0.40
2019-01-15T04:02:01.202Z,0.40
2019-01-15T04:04:31.650Z,0.40
2019-01-15T04:07:02.167Z,0.40
2019-01-15T04:09:33.165Z,0.50
2019-01-15T04:12:04.227Z,0.50
2019-01-15T04:14:36.289Z,0.40
2019-01-15T04:17:07.892Z,0.40
2019-01-15T04:19:39.286Z,0.50
2019-01-15T04:22:11.231Z,0.50
2019-01-15T04:24:42.122Z,0.50
2019-01-15T04:27:13.017Z,0.50
2019-01-15T04:29:43.849Z,0.50
2019-01-15T04:32:15.166Z,0.60
2019-01-15T04:34:45.615Z,0.60
2019-01-15T04:37:16.458Z,0.70
2019-01-15T04:39:46.995Z,0.70
2019-01-15T04:42:17.796Z,0.70
2019-01-15T04:44:48.170Z,0.70
2019-01-15T04:47:18.872Z,0.70
2019-01-15T04:49:49.307Z,0.70
2019-01-15T04:52:20.315Z,0.70
2019-01-15T04:54:52.250Z,0.70
2019-01-15T04:57:23.163Z,0.60
2019-01-15T04:59:54.732Z,0.70
2019-01-15T05:02:26.022Z,0.80
2019-01-15T05:04:57.094Z,0.80
2019-01-15T05:07:28.221Z,0.80
2019-01-15T05:09:58.940Z,0.80
2019-01-15T05:12:30.511Z,0.80
2019-01-15T05:15:01.827Z,0.90
2019-01-15T05:17:33.354Z,0.90
2019-01-15T05:20:05.822Z,0.80
2019-01-15T05:22:37.580Z,0.90
2019-01-15T05:25:11.111Z,0.90
2019-01-15T05:27:42.013Z,0.90
2019-01-15T05:30:21.137Z,1.00
2019-01-15T05:32:52.288Z,1.00
2019-01-15T05:35:23.652Z,0.90
2019-01-15T05:37:54.297Z,1.00
2019-01-15T05:40:24.863Z,1.00
2019-01-15T05:42:55.825Z,1.00
2019-01-15T05:45:33.300Z,1.00
2019-01-15T05:48:08.031Z,0.90
2019-01-15T05:51:07.027Z,0.90
2019-01-15T05:53:37.742Z,0.90
2019-01-15T05:56:09.451Z,1.00
2019-01-15T05:58:40.456Z,1.00
2019-01-15T06:01:11.220Z,1.00
2019-01-15T06:03:41.669Z,1.00
2019-01-15T06:06:12.497Z,1.00
2019-01-15T06:08:43.327Z,1.00
2019-01-15T06:11:13.964Z,1.10
2019-01-15T06:13:45.322Z,1.00
2019-01-15T06:16:15.759Z,1.00
2019-01-15T06:18:45.973Z,0.90
2019-01-15T06:21:16.945Z,0.90
2019-01-15T06:23:48.864Z,0.90
2019-01-15T06:26:19.473Z,0.90
2019-01-15T06:28:50.141Z,0.90
2019-01-15T06:31:21.174Z,0.90
2019-01-15T06:33:52.149Z,0.90
2019-01-15T06:36:22.622Z,1.00
2019-01-15T06:38:53.247Z,1.00
2019-01-15T06:41:24.938Z,1.10
2019-01-15T06:43:55.984Z,1.10
2019-01-15T06:46:45.616Z,1.10
2019-01-15T06:49:17.105Z,1.20
2019-01-15T06:51:47.604Z,1.20
2019-01-15T06:54:18.381Z,1.20
2019-01-15T06:56:49.411Z,1.20
2019-01-15T06:59:20.016Z,1.30
2019-01-15T07:01:50.460Z,1.40
2019-01-15T07:04:21.206Z,1.40
2019-01-15T07:06:52.128Z,1.40
2019-01-15T07:09:22.710Z,1.30
2019-01-15T07:11:53.957Z,1.40
2019-01-15T07:14:24.458Z,1.40
2019-01-15T07:16:55.494Z,1.40
2019-01-15T07:19:26.339Z,1.40
2019-01-15T07:21:58.218Z,1.40
2019-01-15T07:24:29.575Z,1.50
2019-01-15T07:26:59.997Z,1.50
2019-01-15T07:29:30.894Z,1.50
2019-01-15T07:32:01.864Z,1.60
2019-01-15T07:34:32.790Z,1.60
2019-01-15T07:37:03.130Z,1.50
2019-01-15T07:39:34.101Z,1.40
2019-01-15T07:42:07.572Z,1.40
2019-01-15T07:44:39.108Z,1.40
2019-01-15T07:47:10.744Z,1.40
2019-01-15T07:49:41.257Z,1.50
2019-01-15T07:52:11.612Z,1.40
2019-01-15T07:54:42.058Z,1.30
2019-01-15T07:57:13.037Z,1.20
2019-01-15T07:59:43.474Z,1.20
2019-01-15T08:02:15.779Z,1.20
2019-01-15T08:04:46.384Z,1.10
2019-01-15T08:07:16.897Z,1.00
2019-01-15T08:09:47.234Z,1.00
2019-01-15T08:12:20.977Z,0.90
2019-01-15T08:14:53.643Z,0.90
2019-01-15T08:17:24.392Z,0.80
2019-01-15T08:19:55.260Z,0.80
2019-01-15T08:22:25.762Z,0.70
2019-01-15T08:24:56.362Z,0.70
2019-01-15T08:27:27.047Z,0.70
2019-01-15T08:29:58.226Z,0.60
2019-01-15T08:32:29.263Z,0.60
2019-01-15T08:34:59.955Z,0.80
2019-01-15T08:37:30.378Z,0.90
2019-01-15T08:40:00.781Z,1.00
2019-01-15T08:42:31.853Z,1.10
2019-01-15T08:45:02.956Z,1.10
2019-01-15T08:47:37.228Z,1.10
2019-01-15T08:50:10.060Z,1.20
2019-01-15T08:52:40.701Z,1.10
2019-01-15T08:55:11.833Z,1.10
2019-01-15T08:57:42.262Z,1.00
2019-01-15T09:00:14.304Z,1.00
2019-01-15T09:02:45.541Z,1.10
2019-01-15T09:05:16.862Z,1.20
2019-01-15T09:07:47.463Z,1.20
2019-01-15T09:10:18.568Z,1.20
2019-01-15T09:12:49.678Z,1.10
2019-01-15T09:15:23.669Z,1.10
2019-01-15T09:17:55.342Z,1.10
2019-01-15T09:20:30.827Z,1.20
2019-01-15T09:23:01.431Z,1.20
2019-01-15T09:25:32.195Z,1.30
2019-01-15T09:28:02.779Z,1.30
2019-01-15T09:30:33.677Z,1.40
2019-01-15T09:33:05.007Z,1.40
2019-01-15T09:35:35.501Z,1.40
2019-01-15T09:38:09.104Z,1.50
2019-01-15T09:40:40.027Z,1.50
2019-01-15T09:43:11.666Z,1.50
2019-01-15T09:45:42.384Z,1.60
2019-01-15T09:48:32.135Z,1.50
2019-01-15T09:51:03.236Z,1.60
2019-01-15T09:53:33.821Z,1.50
2019-01-15T09:56:04.468Z,1.60
2019-01-15T09:58:40.069Z,1.60
2019-01-15T10:01:10.852Z,1.60
2019-01-15T10:03:41.575Z,1.70
2019-01-15T10:06:11.935Z,1.70
2019-01-15T10:08:42.485Z,1.70
2019-01-15T10:11:13.193Z,1.90
2019-01-15T10:13:43.763Z,1.80
2019-01-15T10:16:15.426Z,1.80
2019-01-15T10:18:46.382Z,1.60
2019-01-15T10:21:17.080Z,1.60
2019-01-15T10:23:47.947Z,1.60
2019-01-15T10:26:18.837Z,1.60
2019-01-15T10:28:49.838Z,1.70
2019-01-15T10:32:08.213Z,1.70
2019-01-15T10:34:40.451Z,1.70
2019-01-15T10:37:11.787Z,1.70
2019-01-15T10:39:42.219Z,1.70
2019-01-15T10:42:12.923Z,1.80
2019-01-15T10:44:48.598Z,1.80
2019-01-15T10:47:15.907Z,1.80
2019-01-15T10:49:46.069Z,1.80
2019-01-15T10:52:16.747Z,1.80
2019-01-15T10:54:48.671Z,1.70
2019-01-15T10:57:20.203Z,1.80
2019-01-15T10:59:51.495Z,1.90
2019-01-15T11:02:22.649Z,1.90
2019-01-15T11:04:53.733Z,2.00
2019-01-15T11:07:24.345Z,1.90
2019-01-15T11:09:54.752Z,1.90
2019-01-15T11:12:25.868Z,1.80
2019-01-15T11:14:57.251Z,1.90
2019-01-15T11:17:28.549Z,1.90
2019-01-15T11:19:59.841Z,2.00
2019-01-15T11:22:30.533Z,2.00
2019-01-15T11:25:00.982Z,2.00
2019-01-15T11:27:31.933Z,2.10
2019-01-15T11:30:02.773Z,2.10
2019-01-15T11:32:34.031Z,2.10
2019-01-15T11:35:04.965Z,2.00
2019-01-15T11:37:35.601Z,2.00
2019-01-15T11:40:08.365Z,2.00
2019-01-15T11:42:38.967Z,2.00
2019-01-15T11:45:11.920Z,2.00
2019-01-15T11:47:42.645Z,2.00
2019-01-15T11:50:17.679Z,2.00
2019-01-15T11:52:48.437Z,1.90
2019-01-15T11:55:19.152Z,2.00
2019-01-15T11:58:04.894Z,2.10
2019-01-15T12:01:07.678Z,2.10
2019-01-15T12:03:56.633Z,2.00
2019-01-15T12:06:46.002Z,2.10
2019-01-15T12:09:47.671Z,2.00
2019-01-15T12:12:51.196Z,2.00
2019-01-15T12:15:43.431Z,2.00
2019-01-15T12:18:32.062Z,2.00
2019-01-15T12:21:13.237Z,2.00
2019-01-15T12:24:01.112Z,2.10
2019-01-15T12:26:39.925Z,2.10
2019-01-15T12:29:33.651Z,2.10
2019-01-15T12:32:23.627Z,2.20
2019-01-15T12:35:05.456Z,2.30
2019-01-15T12:37:54.820Z,2.40
2019-01-15T12:40:42.874Z,2.40
2019-01-15T12:43:26.286Z,2.40
2019-01-15T12:46:14.954Z,2.50
2019-01-15T12:49:20.353Z,2.50
2019-01-15T12:52:06.014Z,2.50
2019-01-15T12:54:54.138Z,2.50
2019-01-15T12:57:50.379Z,2.50
2019-01-15T13:00:43.399Z,2.50
2019-01-15T13:03:43.518Z,2.60
2019-01-15T13:06:36.167Z,2.60
2019-01-15T13:09:41.433Z,2.50
2019-01-15T13:12:36.628Z,2.50
2019-01-15T13:15:42.326Z,2.40
2019-01-15T13:18:34.714Z,2.40
2019-01-15T13:21:30.839Z,2.40
2019-01-15T13:24:20.583Z,2.40
2019-01-15T13:27:15.318Z,2.30
2019-01-15T13:30:09.968Z,2.30
2019-01-15T13:33:02.535Z,2.40
2019-01-15T13:35:58.090Z,2.40
2019-01-15T13:38:47.050Z,2.40
2019-01-15T13:41:38.840Z,2.40
2019-01-15T13:44:22.318Z,2.40
2019-01-15T13:47:10.942Z,2.40
2019-01-15T13:49:51.248Z,2.40
2019-01-15T13:52:46.775Z,2.40
2019-01-15T13:55:29.668Z,2.40
2019-01-15T13:58:19.217Z,2.40
2019-01-15T14:01:14.700Z,2.40
2019-01-15T14:04:09.523Z,2.40
2019-01-15T14:07:04.609Z,2.40
2019-01-15T14:09:54.317Z,2.40
2019-01-15T14:12:56.799Z,2.30
2019-01-15T14:15:35.202Z,2.30
2019-01-15T14:18:25.732Z,2.20
2019-01-15T14:21:14.649Z,2.20
2019-01-15T14:24:10.879Z,2.20
2019-01-15T14:27:00.255Z,2.20
2019-01-15T14:30:01.113Z,2.30
2019-01-15T14:32:57.022Z,2.30
2019-01-15T14:35:58.943Z,2.30
2019-01-15T14:39:00.821Z,2.30
2019-01-15T14:41:50.641Z,2.20
2019-01-15T14:44:39.667Z,2.20
2019-01-15T14:47:31.020Z,2.30
2019-01-15T14:50:33.224Z,2.30
2019-01-15T14:53:27.470Z,2.40
2019-01-15T14:56:26.040Z,2.40
2019-01-15T14:59:15.231Z,2.40
2019-01-15T15:02:18.682Z,2.50
2019-01-15T15:05:01.182Z,2.50
2019-01-15T15:08:00.632Z,2.50
2019-01-15T15:10:51.852Z,2.50
2019-01-15T15:13:40.296Z,2.50
2019-01-15T15:16:34.140Z,2.50
2019-01-15T15:19:27.048Z,2.50
2019-01-15T15:22:26.848Z,2.50
2019-01-15T15:25:27.215Z,2.60
2019-01-15T15:28:15.109Z,2.60
2019-01-15T15:31:02.870Z,2.60
2019-01-15T15:33:53.126Z,2.60
2019-01-15T15:36:46.808Z,2.70
2019-01-15T15:39:30.094Z,2.70
2019-01-15T15:42:20.237Z,2.70
2019-01-15T15:45:28.688Z,2.80
2019-01-15T15:48:17.907Z,2.80
2019-01-15T15:51:12.583Z,2.80
2019-01-15T15:54:05.145Z,2.80
2019-01-15T15:57:01.074Z,2.90
2019-01-15T15:59:40.393Z,2.90
2019-01-15T16:02:25.631Z,2.90
2019-01-15T16:05:19.828Z,2.90
2019-01-15T16:08:24.699Z,2.90
2019-01-15T16:11:28.899Z,2.90
2019-01-15T16:14:16.836Z,2.90
2019-01-15T16:17:06.213Z,2.90
2019-01-15T16:19:59.824Z,2.80
2019-01-15T16:22:49.575Z,2.90
2019-01-15T16:25:45.094Z,2.90
2019-01-15T16:28:49.957Z,2.80
2019-01-15T16:31:41.218Z,2.80
2019-01-15T16:34:39.299Z,2.80
2019-01-15T16:37:47.412Z,2.80
2019-01-15T16:40:45.881Z,2.80
2019-01-15T16:43:48.159Z,2.80
2019-01-15T16:46:46.055Z,2.80
2019-01-15T16:49:42.073Z,2.80
2019-01-15T16:52:31.501Z,2.80
2019-01-15T16:55:39.197Z,2.80
2019-01-15T16:58:32.079Z,2.80
2019-01-15T17:01:19.498Z,2.80
2019-01-15T17:04:16.729Z,2.80
2019-01-15T17:07:02.863Z,2.80
2019-01-15T17:09:51.095Z,2.80
2019-01-15T17:12:46.289Z,2.90
2019-01-15T17:15:35.036Z,2.90
2019-01-15T17:18:20.779Z,2.90
2019-01-15T17:21:09.905Z,2.90
2019-01-15T17:23:54.479Z,2.90
2019-01-15T17:26:42.491Z,2.90
2019-01-15T17:29:28.237Z,2.90
2019-01-15T17:32:18.093Z,2.80
2019-01-15T17:35:08.024Z,2.80
2019-01-15T17:37:57.135Z,2.80
2019-01-15T17:40:46.203Z,2.80
2019-01-15T17:43:34.660Z,2.90
2019-01-15T17:46:21.047Z,2.90
2019-01-15T17:49:18.198Z,2.80
2019-01-15T17:52:05.564Z,2.80
2019-01-15T17:54:54.901Z,2.80
2019-01-15T17:57:43.124Z,2.80
2019-01-15T18:00:39.965Z,2.90
2019-01-15T18:03:52.977Z,2.90
2019-01-15T18:06:38.084Z,2.90
2019-01-15T18:09:32.547Z,3.00
2019-01-15T18:12:26.233Z,2.90
2019-01-15T18:15:15.494Z,3.00
2019-01-15T18:18:18.293Z,3.00
2019-01-15T18:21:10.371Z,2.90
2019-01-15T18:24:10.223Z,3.00
2019-01-15T18:27:08.103Z,3.00
2019-01-15T18:30:12.943Z,3.00
2019-01-15T18:33:01.901Z,3.00
2019-01-15T18:35:58.353Z,2.90
2019-01-15T18:38:41.429Z,3.00
2019-01-15T18:41:44.013Z,3.00
2019-01-15T18:44:43.550Z,3.10
2019-01-15T18:47:32.695Z,3.10
2019-01-15T18:50:29.134Z,3.00
2019-01-15T18:56:55.897Z,3.10
2019-01-15T18:59:44.476Z,3.10
2019-01-15T19:02:43.245Z,3.10
2019-01-15T19:05:39.175Z,3.10
2019-01-15T19:08:32.226Z,3.20
2019-01-15T19:11:28.863Z,3.20
2019-01-15T19:14:25.340Z,3.30
2019-01-15T19:17:15.489Z,3.30
2019-01-15T19:19:55.435Z,3.40
2019-01-15T19:22:38.562Z,3.40
2019-01-15T19:25:34.877Z,3.40
2019-01-15T19:28:31.561Z,3.40
2019-01-15T19:31:37.192Z,3.50
2019-01-15T19:34:37.833Z,3.50
2019-01-15T19:37:33.801Z,3.50
2019-01-15T19:40:23.209Z,3.60
2019-01-15T19:43:19.963Z,3.60
2019-01-15T19:46:21.783Z,3.70
2019-01-15T19:49:10.815Z,3.80
2019-01-15T19:52:02.962Z,3.80
2019-01-15T19:55:00.851Z,3.80
2019-01-15T19:57:50.791Z,3.80
2019-01-15T20:00:51.409Z,3.80
2019-01-15T20:03:48.070Z,3.90
2019-01-15T20:06:35.301Z,3.90
2019-01-15T20:09:22.370Z,3.90
2019-01-15T20:12:24.004Z,4.00
2019-01-15T20:15:13.018Z,4.00
2019-01-15T20:18:04.425Z,4.10
2019-01-15T20:21:03.425Z,4.10
2019-01-15T20:23:59.680Z,4.20
2019-01-15T20:26:56.213Z,4.20
2019-01-15T20:29:53.035Z,4.30
2019-01-15T20:32:44.048Z,4.30
2019-01-15T20:35:48.790Z,4.30
2019-01-15T20:38:41.033Z,4.30
2019-01-15T20:41:38.219Z,4.30
2019-01-15T20:44:29.073Z,4.30
2019-01-15T20:47:25.319Z,4.40
2019-01-15T20:50:09.249Z,4.40
2019-01-15T20:53:14.183Z,4.40
2019-01-15T20:56:13.779Z,4.40
2019-01-15T20:59:04.913Z,4.30
2019-01-15T21:01:46.939Z,4.40
2019-01-15T21:04:55.503Z,4.40
2019-01-15T21:07:55.162Z,4.30
2019-01-15T21:10:55.873Z,4.40
2019-01-15T21:13:45.236Z,4.40
2019-01-15T21:16:38.513Z,4.40
2019-01-15T21:19:26.939Z,4.50
2019-01-15T21:22:29.733Z,4.50
2019-01-15T21:25:24.022Z,4.50
2019-01-15T21:28:32.952Z,4.60
2019-01-15T21:31:32.964Z,4.60
2019-01-15T21:34:23.010Z,4.60
2019-01-15T21:37:10.877Z,4.70
2019-01-15T21:39:51.349Z,4.70
2019-01-15T21:42:59.053Z,4.70
2019-01-15T21:45:51.079Z,4.70
2019-01-15T21:48:48.025Z,4.80
2019-01-15T21:51:53.069Z,4.80
2019-01-15T21:54:41.204Z,4.90
2019-01-15T21:57:37.853Z,4.80
2019-01-15T22:00:42.192Z,4.90
2019-01-15T22:03:23.993Z,4.90
2019-01-15T22:06:18.075Z,5.00
2019-01-15T22:09:11.944Z,5.00
2019-01-15T22:12:16.953Z,5.00
2019-01-15T22:15:15.880Z,5.10
2019-01-15T22:18:08.291Z,5.10
2019-01-15T22:21:05.453Z,5.10
2019-01-15T22:24:13.797Z,5.10
2019-01-15T22:27:03.332Z,5.10
2019-01-15T22:30:08.274Z,5.10
2019-01-15T22:33:03.061Z,5.20
2019-01-15T22:36:04.589Z,5.10
2019-01-15T22:39:03.508Z,5.10
2019-01-15T22:41:54.159Z,5.10
2019-01-15T22:44:46.283Z,5.20
2019-01-15T22:47:29.786Z,5.30
2019-01-15T22:50:20.763Z,5.30
2019-01-15T22:53:10.225Z,5.30
2019-01-15T22:55:57.878Z,5.30
2019-01-15T22:58:47.960Z,5.30
2019-01-15T23:01:56.160Z,5.30
2019-01-15T23:04:39.817Z,5.40
2019-01-15T23:07:29.713Z,5.40
2019-01-15T23:10:29.632Z,5.40
2019-01-15T23:13:10.647Z,5.30
2019-01-15T23:16:06.852Z,5.40
2019-01-15T23:18:46.550Z,5.30
2019-01-15T23:21:36.155Z,5.30
2019-01-15T23:24:41.104Z,5.30
2019-01-15T23:27:29.045Z,5.30
2019-01-15T23:30:30.995Z,5.20
2019-01-15T23:33:19.036Z,5.30
2019-01-15T23:36:14.956Z,5.30
2019-01-15T23:38:59.576Z,5.20
2019-01-15T23:41:48.983Z,5.20
2019-01-15T23:44:53.535Z,5.30
2019-01-15T23:47:54.922Z,5.30
2019-01-15T23:50:48.661Z,5.30
2019-01-15T23:53:55.001Z,5.30
2019-01-15T23:56:44.499Z,5.30
2019-01-15T23:59:40.255Z,5.20
